Time,TemperatureF,DewpointF,PressureIn,WindDirection,WindDirectionDegrees,WindSpeedMPH,WindSpeedGustMPH,Humidity,HourlyPrecipIn,Conditions,Clouds,dailyrainin,SoftwareType,DateUTC
2013-04-16 00:00:00,36.0,34.7,30.41,SSW,201,0.0,0.0,95,0.00,,,0.00,Wunderground v.1.15,2013-04-16 04:00:00,
2013-04-16 00:01:00,36.0,34.7,30.41,SSW,201,0.0,0.0,95,0.00,,,0.00,Wunderground v.1.15,2013-04-16 04:01:00,
2013-04-16 00:02:00,35.9,34.6,30.41,SSW,201,0.0,0.0,95,0.00,,,0.00,Wunderground v.1.15,2013-04-16 04:02:00,
2013-04-16 00:04:00,35.8,34.5,30.41,SSW,201,0.0,0.0,95,0.00,,,0.00,Wunderground v.1.15,2013-04-16 04:04:00,
2013-04-16 00:06:00,35.7,34.4,30.41,SSW,201,0.0,0.0,95,0.00,,,0.00,Wunderground v.1.15,2013-04-16 04:06:00,
2013-04-16 00:11:00,35.3,34.0,30.42,SSW,201,0.0,0.0,95,0.00,,,0.00,Wunderground v.1.15,2013-04-16 04:11:00,
2013-04-16 00:17:00,35.1,33.8,30.42,SSW,201,0.0,0.0,95,0.00,,,0.00,Wunderground v.1.15,2013-04-16 04:17:00,
2013-04-16 00:22:00,35.1,33.8,30.41,SSW,201,0.0,0.0,95,0.00,,,0.00,Wunderground v.1.15,2013-04-16 04:22:00,
2013-04-16 00:28:00,35.3,34.0,30.41,SSW,201,0.0,0.0,95,0.00,,,0.00,Wunderground v.1.15,2013-04-16 04:28:00,
2013-04-16 00:33:00,35.3,34.0,30.41,SSW,201,0.0,0.0,95,0.00,,,0.00,Wunderground v.1.15,2013-04-16 04:33:00,
2013-04-16 00:38:00,35.2,33.9,30.41,SSW,201,0.0,0.0,95,0.00,,,0.00,Wunderground v.1.15,2013-04-16 04:38:00,
2013-04-16 00:44:00,35.1,33.8,30.41,SSW,201,0.0,0.0,95,0.00,,,0.00,Wunderground v.1.15,2013-04-16 04:44:00,
2013-04-16 00:50:00,34.9,33.6,30.41,SSW,201,0.0,0.0,95,0.00,,,0.00,Wunderground v.1.15,2013-04-16 04:50:00,
2013-04-16 00:55:00,34.9,33.6,30.41,SSW,200,0.0,0.0,95,0.00,,,0.00,Wunderground v.1.15,2013-04-16 04:55:00,
2013-04-16 01:01:00,34.7,33.4,30.41,SSW,201,0.0,0.0,95,0.00,,,0.00,Wunderground v.1.15,2013-04-16 05:01:00,
2013-04-16 01:07:00,34.5,33.2,30.40,SSW,201,0.0,0.0,95,0.00,,,0.00,Wunderground v.1.15,2013-04-16 05:07:00,
2013-04-16 01:12:00,34.5,33.5,30.40,SSW,201,0.0,0.0,96,0.00,,,0.00,Wunderground v.1.15,2013-04-16 05:12:00,
2013-04-16 01:17:00,34.5,33.5,30.40,SSW,201,0.0,0.0,96,0.00,,,0.00,Wunderground v.1.15,2013-04-16 05:17:00,
2013-04-16 01:23:00,34.7,33.7,30.40,SSW,201,0.0,0.0,96,0.00,,,0.00,Wunderground v.1.15,2013-04-16 05:23:00,
2013-04-16 01:28:00,34.6,33.6,30.40,SSW,200,0.0,0.0,96,0.00,,,0.00,Wunderground v.1.15,2013-04-16 05:28:00,
2013-04-16 01:33:00,34.3,33.3,30.40,SSW,201,0.0,0.0,96,0.00,,,0.00,Wunderground v.1.15,2013-04-16 05:33:00,
2013-04-16 01:38:00,34.1,33.1,30.40,SSW,201,0.0,0.0,96,0.00,,,0.00,Wunderground v.1.15,2013-04-16 05:38:00,
2013-04-16 01:44:00,33.9,32.9,30.40,SSW,201,0.0,0.0,96,0.00,,,0.00,Wunderground v.1.15,2013-04-16 05:44:00,
2013-04-16 01:49:00,33.6,32.6,30.40,SSW,201,0.0,0.0,96,0.00,,,0.00,Wunderground v.1.15,2013-04-16 05:49:00,
2013-04-16 01:54:00,33.4,32.4,30.40,SSW,201,0.0,0.0,96,0.00,,,0.00,Wunderground v.1.15,2013-04-16 05:54:00,
2013-04-16 01:59:00,33.4,32.4,30.40,SSW,201,0.0,0.0,96,0.00,,,0.00,Wunderground v.1.15,2013-04-16 05:59:00,
2013-04-16 02:04:00,33.3,32.3,30.40,SSW,200,0.0,0.0,96,0.00,,,0.00,Wunderground v.1.15,2013-04-16 06:04:00,
2013-04-16 02:09:00,33.1,32.1,30.40,SSW,201,0.0,0.0,96,0.00,,,0.00,Wunderground v.1.15,2013-04-16 06:09:00,
2013-04-16 02:15:00,32.8,31.8,30.40,SSW,201,0.0,0.0,96,0.00,,,0.00,Wunderground v.1.15,2013-04-16 06:15:00,
2013-04-16 02:22:00,32.8,31.8,30.40,SSW,201,0.0,0.0,96,0.00,,,0.00,Wunderground v.1.15,2013-04-16 06:22:00,
2013-04-16 02:27:00,32.8,31.8,30.40,SSW,201,0.0,0.0,96,0.00,,,0.00,Wunderground v.1.15,2013-04-16 06:27:00,
2013-04-16 02:33:00,32.5,31.5,30.40,SSW,201,0.0,0.0,96,0.00,,,0.00,Wunderground v.1.15,2013-04-16 06:33:00,
2013-04-16 02:39:00,32.6,31.6,30.40,SSW,201,0.0,0.0,96,0.00,,,0.00,Wunderground v.1.15,2013-04-16 06:39:00,
2013-04-16 02:44:00,32.6,31.6,30.40,SSW,201,0.0,0.0,96,0.00,,,0.00,Wunderground v.1.15,2013-04-16 06:44:00,
2013-04-16 02:50:00,32.6,31.6,30.39,SSW,201,0.0,0.0,96,0.00,,,0.00,Wunderground v.1.15,2013-04-16 06:50:00,
2013-04-16 02:55:00,32.6,31.6,30.39,SSW,200,0.0,0.0,96,0.00,,,0.00,Wunderground v.1.15,2013-04-16 06:55:00,
2013-04-16 03:01:00,32.3,31.3,30.39,SSW,201,0.0,0.0,96,0.00,,,0.00,Wunderground v.1.15,2013-04-16 07:01:00,
2013-04-16 03:07:00,32.1,31.1,30.40,SSW,201,0.0,0.0,96,0.00,,,0.00,Wunderground v.1.15,2013-04-16 07:07:00,
2013-04-16 03:13:00,31.8,30.8,30.40,SSW,201,0.0,0.0,96,0.00,,,0.00,Wunderground v.1.15,2013-04-16 07:13:00,
2013-04-16 03:19:00,31.7,30.7,30.40,SSW,201,0.0,0.0,96,0.00,,,0.00,Wunderground v.1.15,2013-04-16 07:19:00,
2013-04-16 03:25:00,31.6,30.6,30.40,SSW,201,0.0,0.0,96,0.00,,,0.00,Wunderground v.1.15,2013-04-16 07:25:00,
2013-04-16 03:30:00,31.6,30.6,30.40,SSW,201,0.0,0.0,96,0.00,,,0.00,Wunderground v.1.15,2013-04-16 07:30:00,
2013-04-16 03:35:00,31.7,30.7,30.40,SSW,201,0.0,0.0,96,0.00,,,0.00,Wunderground v.1.15,2013-04-16 07:35:00,
2013-04-16 03:40:00,31.9,30.9,30.40,SSW,201,0.0,0.0,96,0.00,,,0.00,Wunderground v.1.15,2013-04-16 07:40:00,
2013-04-16 03:45:00,32.0,31.0,30.40,SSW,201,0.0,0.0,96,0.00,,,0.00,Wunderground v.1.15,2013-04-16 07:45:00,
2013-04-16 03:51:00,31.9,30.9,30.40,SSW,201,0.0,0.0,96,0.00,,,0.00,Wunderground v.1.15,2013-04-16 07:51:00,
2013-04-16 03:56:00,32.0,31.0,30.41,SSW,201,0.0,0.0,96,0.00,,,0.00,Wunderground v.1.15,2013-04-16 07:56:00,
2013-04-16 04:01:00,31.8,30.8,30.40,SSW,201,0.0,0.0,96,0.00,,,0.00,Wunderground v.1.15,2013-04-16 08:01:00,
2013-04-16 04:07:00,31.6,30.6,30.40,SSW,201,0.0,0.0,96,0.00,,,0.00,Wunderground v.1.15,2013-04-16 08:07:00,
2013-04-16 04:12:00,31.6,30.6,30.40,SSW,201,0.0,0.0,96,0.00,,,0.00,Wunderground v.1.15,2013-04-16 08:12:00,
2013-04-16 04:18:00,31.5,30.5,30.40,SSW,201,0.0,0.0,96,0.00,,,0.00,Wunderground v.1.15,2013-04-16 08:18:00,
2013-04-16 04:24:00,31.6,30.6,30.40,SSW,201,0.0,0.0,96,0.00,,,0.00,Wunderground v.1.15,2013-04-16 08:24:00,
2013-04-16 04:29:00,31.4,30.4,30.40,SSW,201,0.0,0.0,96,0.00,,,0.00,Wunderground v.1.15,2013-04-16 08:29:00,
2013-04-16 04:34:00,31.2,30.2,30.41,SSW,201,0.0,0.0,96,0.00,,,0.00,Wunderground v.1.15,2013-04-16 08:34:00,
2013-04-16 04:40:00,31.0,30.0,30.40,SSW,201,0.0,0.0,96,0.00,,,0.00,Wunderground v.1.15,2013-04-16 08:40:00,
2013-04-16 04:45:00,31.0,30.0,30.40,SSW,201,0.0,0.0,96,0.00,,,0.00,Wunderground v.1.15,2013-04-16 08:45:00,
2013-04-16 04:50:00,31.0,30.0,30.40,SSW,201,0.0,0.0,96,0.00,,,0.00,Wunderground v.1.15,2013-04-16 08:50:00,
2013-04-16 04:55:00,30.9,29.9,30.40,SSW,201,0.0,0.0,96,0.00,,,0.00,Wunderground v.1.15,2013-04-16 08:55:00,
2013-04-16 05:01:00,30.9,29.9,30.41,SSW,201,0.0,0.0,96,0.00,,,0.00,Wunderground v.1.15,2013-04-16 09:01:00,
2013-04-16 05:06:00,30.8,29.8,30.41,SSW,201,0.0,0.0,96,0.00,,,0.00,Wunderground v.1.15,2013-04-16 09:06:00,
2013-04-16 05:11:00,30.8,29.8,30.41,SSW,201,0.0,0.0,96,0.00,,,0.00,Wunderground v.1.15,2013-04-16 09:11:00,
2013-04-16 05:17:00,30.6,29.6,30.41,SSW,201,0.0,0.0,96,0.00,,,0.00,Wunderground v.1.15,2013-04-16 09:17:00,
2013-04-16 05:22:00,30.5,29.5,30.40,SSW,201,0.0,0.0,96,0.00,,,0.00,Wunderground v.1.15,2013-04-16 09:22:00,
2013-04-16 05:28:00,30.5,29.5,30.40,SSW,201,0.0,0.0,96,0.00,,,0.00,Wunderground v.1.15,2013-04-16 09:28:00,
2013-04-16 05:34:00,30.5,29.5,30.40,SSW,201,0.0,0.0,96,0.00,,,0.00,Wunderground v.1.15,2013-04-16 09:34:00,
2013-04-16 05:39:00,30.5,29.5,30.40,SSW,201,0.0,0.0,96,0.00,,,0.00,Wunderground v.1.15,2013-04-16 09:39:00,
2013-04-16 05:45:00,30.5,29.5,30.40,SSW,200,0.0,0.0,96,0.00,,,0.00,Wunderground v.1.15,2013-04-16 09:45:00,
2013-04-16 05:50:00,30.3,29.3,30.40,SSW,201,0.0,0.0,96,0.00,,,0.00,Wunderground v.1.15,2013-04-16 09:50:00,
2013-04-16 05:56:00,30.1,29.1,30.40,SSW,201,0.0,0.0,96,0.00,,,0.00,Wunderground v.1.15,2013-04-16 09:56:00,
2013-04-16 06:01:00,30.0,29.0,30.40,SSW,201,0.0,0.0,96,0.00,,,0.00,Wunderground v.1.15,2013-04-16 10:01:00,
2013-04-16 06:07:00,30.0,29.0,30.40,SSW,201,0.0,0.0,96,0.00,,,0.00,Wunderground v.1.15,2013-04-16 10:07:00,
2013-04-16 06:12:00,30.2,29.2,30.40,SSW,201,0.0,0.0,96,0.00,,,0.00,Wunderground v.1.15,2013-04-16 10:12:00,
2013-04-16 06:17:00,30.2,29.5,30.40,SSW,201,0.0,0.0,97,0.00,,,0.00,Wunderground v.1.15,2013-04-16 10:17:00,
2013-04-16 06:23:00,30.1,29.1,30.41,SSW,201,0.0,0.0,96,0.00,,,0.00,Wunderground v.1.15,2013-04-16 10:23:00,
2013-04-16 06:29:00,30.2,29.2,30.40,SSW,202,0.0,0.0,96,0.00,,,0.00,Wunderground v.1.15,2013-04-16 10:29:00,
2013-04-16 06:34:00,30.3,29.6,30.41,SSW,201,0.0,0.0,97,0.00,,,0.00,Wunderground v.1.15,2013-04-16 10:34:00,
2013-04-16 06:39:00,30.4,29.7,30.41,SSW,201,0.0,0.0,97,0.00,,,0.00,Wunderground v.1.15,2013-04-16 10:39:00,
2013-04-16 06:45:00,30.6,29.9,30.41,SSW,201,0.0,0.0,97,0.00,,,0.00,Wunderground v.1.15,2013-04-16 10:45:00,
2013-04-16 06:51:00,30.8,30.0,30.41,SSW,201,0.0,0.0,97,0.00,,,0.00,Wunderground v.1.15,2013-04-16 10:51:00,
2013-04-16 06:57:00,30.9,30.1,30.41,SSW,201,0.0,0.0,97,0.00,,,0.00,Wunderground v.1.15,2013-04-16 10:57:00,
2013-04-16 07:02:00,32.0,31.2,30.41,SSW,201,0.0,0.0,97,0.00,,,0.00,Wunderground v.1.15,2013-04-16 11:02:00,
2013-04-16 07:07:00,33.1,32.3,30.41,SSW,201,0.0,0.0,97,0.00,,,0.00,Wunderground v.1.15,2013-04-16 11:07:00,
2013-04-16 07:12:00,34.0,33.2,30.41,SSW,201,0.0,0.0,97,0.00,,,0.00,Wunderground v.1.15,2013-04-16 11:12:00,
2013-04-16 07:18:00,35.2,34.4,30.41,SSW,201,0.0,0.0,97,0.00,,,0.00,Wunderground v.1.15,2013-04-16 11:18:00,
2013-04-16 07:24:00,35.8,35.0,30.40,SSW,201,0.0,0.0,97,0.00,,,0.00,Wunderground v.1.15,2013-04-16 11:24:00,
2013-04-16 07:30:00,36.6,35.8,30.40,SSW,201,0.0,0.0,97,0.00,,,0.00,Wunderground v.1.15,2013-04-16 11:30:00,
2013-04-16 07:35:00,37.7,36.9,30.40,SSW,201,0.0,0.0,97,0.00,,,0.00,Wunderground v.1.15,2013-04-16 11:35:00,
2013-04-16 07:41:00,38.6,37.6,30.41,SSW,201,0.0,0.0,96,0.00,,,0.00,Wunderground v.1.15,2013-04-16 11:41:00,
2013-04-16 07:46:00,39.0,38.0,30.41,SSW,201,0.0,0.0,96,0.00,,,0.00,Wunderground v.1.15,2013-04-16 11:46:00,
2013-04-16 07:51:00,40.4,39.4,30.41,SSW,208,0.0,0.0,96,0.00,,,0.00,Wunderground v.1.15,2013-04-16 11:51:00,
2013-04-16 07:56:00,41.4,40.3,30.41,WSW,248,0.0,0.0,96,0.00,,,0.00,Wunderground v.1.15,2013-04-16 11:56:00,
2013-04-16 08:01:00,42.4,41.3,30.41,WSW,250,0.0,0.0,96,0.00,,,0.00,Wunderground v.1.15,2013-04-16 12:01:00,
2013-04-16 08:07:00,43.3,42.2,30.41,West,278,0.0,1.0,96,0.00,,,0.00,Wunderground v.1.15,2013-04-16 12:07:00,
2013-04-16 08:13:00,44.3,42.7,30.40,SW,229,1.0,1.0,94,0.00,,,0.00,Wunderground v.1.15,2013-04-16 12:13:00,
2013-04-16 08:19:00,45.3,43.4,30.40,WSW,252,1.0,2.0,93,0.00,,,0.00,Wunderground v.1.15,2013-04-16 12:19:00,
2013-04-16 08:25:00,46.5,43.7,30.41,South,169,2.0,5.0,90,0.00,,,0.00,Wunderground v.1.15,2013-04-16 12:25:00,
2013-04-16 08:31:00,47.6,43.6,30.40,SW,236,3.0,3.0,86,0.00,,,0.00,Wunderground v.1.15,2013-04-16 12:31:00,
2013-04-16 08:37:00,48.5,43.9,30.40,SSW,205,3.0,5.0,84,0.00,,,0.00,Wunderground v.1.15,2013-04-16 12:37:00,
2013-04-16 08:43:00,49.3,44.4,30.40,SSW,211,3.0,5.0,83,0.00,,,0.00,Wunderground v.1.15,2013-04-16 12:43:00,
2013-04-16 08:48:00,50.0,44.1,30.40,SSW,205,3.0,6.0,80,0.00,,,0.00,Wunderground v.1.15,2013-04-16 12:48:00,
2013-04-16 08:53:00,50.5,43.9,30.39,SSW,197,4.0,9.0,78,0.00,,,0.00,Wunderground v.1.15,2013-04-16 12:53:00,
2013-04-16 08:59:00,51.2,43.9,30.40,SW,222,4.0,9.0,76,0.00,,,0.00,Wunderground v.1.15,2013-04-16 12:59:00,
2013-04-16 09:04:00,51.8,44.5,30.40,SSE,151,3.0,4.0,76,0.00,,,0.00,Wunderground v.1.15,2013-04-16 13:04:00,
2013-04-16 09:10:00,52.3,45.0,30.40,SSW,212,4.0,4.0,76,0.00,,,0.00,Wunderground v.1.15,2013-04-16 13:10:00,
2013-04-16 09:16:00,52.8,45.1,30.39,SW,226,4.0,8.0,75,0.00,,,0.00,Wunderground v.1.15,2013-04-16 13:16:00,
2013-04-16 09:22:00,53.4,45.0,30.39,SE,136,4.0,6.0,73,0.00,,,0.00,Wunderground v.1.15,2013-04-16 13:22:00,
2013-04-16 09:27:00,53.9,45.4,30.39,SW,219,4.0,6.0,73,0.00,,,0.00,Wunderground v.1.15,2013-04-16 13:27:00,
2013-04-16 09:32:00,54.3,44.7,30.39,SSW,194,4.0,5.0,70,0.00,,,0.00,Wunderground v.1.15,2013-04-16 13:32:00,
2013-04-16 09:38:00,54.3,44.7,30.40,SSW,209,5.0,9.0,70,0.00,,,0.00,Wunderground v.1.15,2013-04-16 13:38:00,
2013-04-16 09:43:00,54.1,44.5,30.40,SW,229,6.0,7.0,70,0.00,,,0.00,Wunderground v.1.15,2013-04-16 13:43:00,
2013-04-16 09:49:00,54.1,44.9,30.39,SSW,210,5.0,8.0,71,0.00,,,0.00,Wunderground v.1.15,2013-04-16 13:49:00,
2013-04-16 09:54:00,53.8,45.0,30.40,SSW,205,5.0,6.0,72,0.00,,,0.00,Wunderground v.1.15,2013-04-16 13:54:00,
2013-04-16 10:00:00,54.2,45.0,30.40,SE,146,4.0,4.0,71,0.00,,,0.00,Wunderground v.1.15,2013-04-16 14:00:00,
2013-04-16 10:05:00,54.2,45.0,30.40,South,189,5.0,14.0,71,0.00,,,0.00,Wunderground v.1.15,2013-04-16 14:05:00,
2013-04-16 10:11:00,54.2,45.0,30.40,WSW,250,5.0,6.0,71,0.00,,,0.00,Wunderground v.1.15,2013-04-16 14:11:00,
2013-04-16 10:16:00,54.5,44.9,30.39,WSW,243,5.0,10.0,70,0.00,,,0.00,Wunderground v.1.15,2013-04-16 14:16:00,
2013-04-16 10:21:00,55.3,46.8,30.39,SSW,197,5.0,5.0,73,0.00,,,0.00,Wunderground v.1.15,2013-04-16 14:21:00,
2013-04-16 10:26:00,55.7,45.7,30.39,SE,136,5.0,8.0,69,0.00,,,0.00,Wunderground v.1.15,2013-04-16 14:26:00,
2013-04-16 10:32:00,55.9,45.5,30.39,WSW,253,6.0,8.0,68,0.00,,,0.00,Wunderground v.1.15,2013-04-16 14:32:00,
2013-04-16 10:38:00,55.7,45.7,30.38,SSW,197,6.0,8.0,69,0.00,,,0.00,Wunderground v.1.15,2013-04-16 14:38:00,
2013-04-16 10:43:00,55.7,45.3,30.38,SW,218,6.0,9.0,68,0.00,,,0.00,Wunderground v.1.15,2013-04-16 14:43:00,
2013-04-16 10:49:00,55.4,45.8,30.38,WSW,246,6.0,10.0,70,0.00,,,0.00,Wunderground v.1.15,2013-04-16 14:49:00,
2013-04-16 10:54:00,55.4,45.0,30.38,SW,222,6.0,6.0,68,0.00,,,0.00,Wunderground v.1.15,2013-04-16 14:54:00,
2013-04-16 10:59:00,55.3,44.5,30.39,SW,222,6.0,11.0,67,0.00,,,0.00,Wunderground v.1.15,2013-04-16 14:59:00,
2013-04-16 11:04:00,55.5,44.7,30.39,WSW,249,6.0,6.0,67,0.00,,,0.00,Wunderground v.1.15,2013-04-16 15:04:00,
2013-04-16 11:09:00,55.3,44.9,30.39,SW,236,7.0,10.0,68,0.00,,,0.00,Wunderground v.1.15,2013-04-16 15:09:00,
2013-04-16 11:15:00,54.9,44.5,30.39,SW,219,7.0,10.0,68,0.00,,,0.00,Wunderground v.1.15,2013-04-16 15:15:00,
2013-04-16 11:20:00,54.7,44.7,30.38,WSW,239,8.0,12.0,69,0.00,,,0.00,Wunderground v.1.15,2013-04-16 15:20:00,
2013-04-16 11:25:00,55.1,45.1,30.38,South,176,7.0,12.0,69,0.00,,,0.00,Wunderground v.1.15,2013-04-16 15:25:00,
2013-04-16 11:30:00,55.6,45.6,30.38,West,260,5.0,5.0,69,0.00,,,0.00,Wunderground v.1.15,2013-04-16 15:30:00,
2013-04-16 11:35:00,55.4,45.0,30.37,South,184,5.0,9.0,68,0.00,,,0.00,Wunderground v.1.15,2013-04-16 15:35:00,
2013-04-16 11:40:00,55.9,46.3,30.37,SSW,195,6.0,6.0,70,0.00,,,0.00,Wunderground v.1.15,2013-04-16 15:40:00,
2013-04-16 11:46:00,56.3,46.3,30.36,SSW,193,5.0,9.0,69,0.00,,,0.00,Wunderground v.1.15,2013-04-16 15:46:00,
2013-04-16 11:51:00,56.6,45.4,30.35,SW,225,6.0,14.0,66,0.00,,,0.00,Wunderground v.1.15,2013-04-16 15:51:00,
2013-04-16 11:56:00,56.9,46.4,30.35,SSW,198,6.0,14.0,68,0.00,,,0.00,Wunderground v.1.15,2013-04-16 15:56:00,
2013-04-16 12:02:00,57.2,45.9,30.35,SSW,204,7.0,13.0,66,0.00,,,0.00,Wunderground v.1.15,2013-04-16 16:02:00,
2013-04-16 12:08:00,57.4,46.1,30.34,SW,224,6.0,13.0,66,0.00,,,0.00,Wunderground v.1.15,2013-04-16 16:08:00,
2013-04-16 12:14:00,57.7,46.0,30.34,SW,224,6.0,13.0,65,0.00,,,0.00,Wunderground v.1.15,2013-04-16 16:14:00,
2013-04-16 12:20:00,57.8,46.5,30.34,SSE,152,6.0,13.0,66,0.00,,,0.00,Wunderground v.1.15,2013-04-16 16:20:00,
2013-04-16 12:26:00,57.8,46.9,30.34,SW,229,7.0,13.0,67,0.00,,,0.00,Wunderground v.1.15,2013-04-16 16:26:00,
2013-04-16 12:32:00,58.4,47.5,30.34,SW,215,6.0,13.0,67,0.00,,,0.00,Wunderground v.1.15,2013-04-16 16:32:00,
2013-04-16 12:38:00,58.2,46.1,30.33,South,191,7.0,13.0,64,0.00,,,0.00,Wunderground v.1.15,2013-04-16 16:38:00,
2013-04-16 12:44:00,58.4,47.1,30.33,SSW,205,7.0,13.0,66,0.00,,,0.00,Wunderground v.1.15,2013-04-16 16:44:00,
2013-04-16 12:49:00,58.4,46.7,30.33,ESE,122,7.0,13.0,65,0.00,,,0.00,Wunderground v.1.15,2013-04-16 16:49:00,
2013-04-16 12:54:00,58.3,47.0,30.33,WSW,238,7.0,13.0,66,0.00,,,0.00,Wunderground v.1.15,2013-04-16 16:54:00,
2013-04-16 12:59:00,58.3,47.4,30.33,SSE,163,7.0,13.0,67,0.00,,,0.00,Wunderground v.1.15,2013-04-16 16:59:00,
2013-04-16 13:04:00,58.7,47.0,30.32,SSW,204,7.0,13.0,65,0.00,,,0.00,Wunderground v.1.15,2013-04-16 17:04:00,
2013-04-16 13:09:00,58.9,47.6,30.31,SW,232,7.0,16.0,66,0.00,,,0.00,Wunderground v.1.15,2013-04-16 17:09:00,
2013-04-16 13:15:00,58.9,46.7,30.31,ESE,123,6.0,13.0,64,0.00,,,0.00,Wunderground v.1.15,2013-04-16 17:15:00,
2013-04-16 13:21:00,58.2,46.5,30.30,SE,132,9.0,13.0,65,0.00,,,0.00,Wunderground v.1.15,2013-04-16 17:21:00,
2013-04-16 13:26:00,58.2,47.3,30.31,SSW,193,9.0,13.0,67,0.00,,,0.00,Wunderground v.1.15,2013-04-16 17:26:00,
2013-04-16 13:32:00,58.3,46.6,30.31,South,179,7.0,19.0,65,0.00,,,0.00,Wunderground v.1.15,2013-04-16 17:32:00,
2013-04-16 13:37:00,58.1,47.2,30.31,SW,215,8.0,19.0,67,0.00,,,0.00,Wunderground v.1.15,2013-04-16 17:37:00,
2013-04-16 13:42:00,58.5,47.6,30.31,SW,216,7.0,13.0,67,0.00,,,0.00,Wunderground v.1.15,2013-04-16 17:42:00,
2013-04-16 13:48:00,58.4,47.5,30.31,SSW,210,7.0,13.0,67,0.00,,,0.00,Wunderground v.1.15,2013-04-16 17:48:00,
2013-04-16 13:53:00,58.4,47.5,30.31,South,172,8.0,13.0,67,0.00,,,0.00,Wunderground v.1.15,2013-04-16 17:53:00,
2013-04-16 13:58:00,58.4,47.9,30.31,SE,127,8.0,13.0,68,0.00,,,0.00,Wunderground v.1.15,2013-04-16 17:58:00,
2013-04-16 14:03:00,58.9,49.1,30.31,SSE,156,7.0,13.0,70,0.00,,,0.00,Wunderground v.1.15,2013-04-16 18:03:00,
2013-04-16 14:09:00,59.0,47.7,30.31,WSW,250,6.0,13.0,66,0.00,,,0.00,Wunderground v.1.15,2013-04-16 18:09:00,
2013-04-16 14:15:00,59.4,48.8,30.31,WSW,245,6.0,13.0,68,0.00,,,0.00,Wunderground v.1.15,2013-04-16 18:15:00,
2013-04-16 14:21:00,59.3,47.9,30.31,WNW,290,5.0,13.0,66,0.00,,,0.00,Wunderground v.1.15,2013-04-16 18:21:00,
2013-04-16 14:27:00,58.7,47.8,30.30,SW,217,7.0,13.0,67,0.00,,,0.00,Wunderground v.1.15,2013-04-16 18:27:00,
2013-04-16 14:32:00,58.9,48.4,30.30,WSW,246,8.0,13.0,68,0.00,,,0.00,Wunderground v.1.15,2013-04-16 18:32:00,
2013-04-16 14:37:00,58.9,48.4,30.30,SSE,162,8.0,13.0,68,0.00,,,0.00,Wunderground v.1.15,2013-04-16 18:37:00,
2013-04-16 14:43:00,58.9,48.4,30.30,WSW,248,8.0,13.0,68,0.00,,,0.00,Wunderground v.1.15,2013-04-16 18:43:00,
2013-04-16 14:48:00,59.3,48.3,30.30,SSW,204,7.0,13.0,67,0.00,,,0.00,Wunderground v.1.15,2013-04-16 18:48:00,
2013-04-16 14:54:00,59.4,48.8,30.30,SSW,199,7.0,13.0,68,0.00,,,0.00,Wunderground v.1.15,2013-04-16 18:54:00,
2013-04-16 15:00:00,59.4,48.8,30.29,SSW,198,7.0,7.0,68,0.00,,,0.00,Wunderground v.1.15,2013-04-16 19:00:00,
2013-04-16 15:05:00,59.7,48.3,30.29,SE,146,6.0,13.0,66,0.00,,,0.00,Wunderground v.1.15,2013-04-16 19:05:00,
2013-04-16 15:11:00,59.0,48.1,30.29,WSW,255,7.0,9.0,67,0.00,,,0.00,Wunderground v.1.15,2013-04-16 19:11:00,
2013-04-16 15:16:00,59.4,48.8,30.29,SSW,204,7.0,13.0,68,0.00,,,0.00,Wunderground v.1.15,2013-04-16 19:16:00,
2013-04-16 15:22:00,59.5,48.5,30.29,West,280,6.0,13.0,67,0.00,,,0.00,Wunderground v.1.15,2013-04-16 19:22:00,
2013-04-16 15:27:00,59.1,48.1,30.29,South,187,7.0,13.0,67,0.00,,,0.00,Wunderground v.1.15,2013-04-16 19:27:00,
2013-04-16 15:32:00,59.1,48.5,30.28,SW,229,7.0,13.0,68,0.00,,,0.00,Wunderground v.1.15,2013-04-16 19:32:00,
2013-04-16 15:38:00,58.9,48.7,30.28,SSW,208,7.0,13.0,69,0.00,,,0.00,Wunderground v.1.15,2013-04-16 19:38:00,
2013-04-16 15:44:00,58.3,48.6,30.28,SSW,194,7.0,13.0,70,0.00,,,0.00,Wunderground v.1.15,2013-04-16 19:44:00,
2013-04-16 15:49:00,58.5,49.1,30.28,SSW,203,8.0,13.0,71,0.00,,,0.00,Wunderground v.1.15,2013-04-16 19:49:00,
2013-04-16 15:55:00,58.7,48.9,30.28,South,187,9.0,14.0,70,0.00,,,0.00,Wunderground v.1.15,2013-04-16 19:55:00,
2013-04-16 16:00:00,58.4,48.7,30.27,South,189,10.0,10.0,70,0.00,,,0.00,Wunderground v.1.15,2013-04-16 20:00:00,
2013-04-16 16:06:00,58.1,49.1,30.27,SW,233,9.0,13.0,72,0.00,,,0.00,Wunderground v.1.15,2013-04-16 20:06:00,
2013-04-16 16:11:00,57.8,48.5,30.27,South,171,8.0,13.0,71,0.00,,,0.00,Wunderground v.1.15,2013-04-16 20:11:00,
2013-04-16 16:17:00,57.3,48.7,30.26,WSW,242,7.0,13.0,73,0.00,,,0.00,Wunderground v.1.15,2013-04-16 20:17:00,
2013-04-16 16:23:00,57.4,49.2,30.26,SSW,211,7.0,13.0,74,0.00,,,0.00,Wunderground v.1.15,2013-04-16 20:23:00,
2013-04-16 16:29:00,58.0,49.0,30.25,South,177,7.0,13.0,72,0.00,,,0.00,Wunderground v.1.15,2013-04-16 20:29:00,
2013-04-16 16:34:00,57.2,49.0,30.25,West,262,8.0,13.0,74,0.00,,,0.00,Wunderground v.1.15,2013-04-16 20:34:00,
2013-04-16 16:40:00,56.8,49.0,30.25,SW,228,8.0,8.0,75,0.00,,,0.00,Wunderground v.1.15,2013-04-16 20:40:00,
2013-04-16 16:45:00,56.8,49.3,30.25,SW,225,7.0,13.0,76,0.00,,,0.00,Wunderground v.1.15,2013-04-16 20:45:00,
2013-04-16 16:51:00,56.5,49.0,30.25,SW,229,7.0,13.0,76,0.00,,,0.00,Wunderground v.1.15,2013-04-16 20:51:00,
2013-04-16 16:56:00,56.2,49.1,30.25,WSW,243,8.0,13.0,77,0.00,,,0.00,Wunderground v.1.15,2013-04-16 20:56:00,
2013-04-16 17:01:00,55.9,49.1,30.24,SW,215,9.0,13.0,78,0.00,,,0.00,Wunderground v.1.15,2013-04-16 21:01:00,
2013-04-16 17:06:00,55.8,49.0,30.24,WSW,257,8.0,13.0,78,0.00,,,0.00,Wunderground v.1.15,2013-04-16 21:06:00,
2013-04-16 17:12:00,55.7,49.3,30.24,SW,219,6.0,13.0,79,0.00,,,0.00,Wunderground v.1.15,2013-04-16 21:12:00,
2013-04-16 17:17:00,55.4,49.0,30.24,SSW,195,6.0,13.0,79,0.00,,,0.00,Wunderground v.1.15,2013-04-16 21:17:00,
2013-04-16 17:22:00,55.3,49.2,30.24,SSW,200,7.0,13.0,80,0.00,,,0.00,Wunderground v.1.15,2013-04-16 21:22:00,
2013-04-16 17:28:00,55.2,49.1,30.25,SW,233,5.0,13.0,80,0.00,,,0.00,Wunderground v.1.15,2013-04-16 21:28:00,
2013-04-16 17:33:00,55.0,49.3,30.24,WSW,240,5.0,13.0,81,0.00,,,0.00,Wunderground v.1.15,2013-04-16 21:33:00,
2013-04-16 17:39:00,55.1,49.4,30.23,SSW,204,4.0,13.0,81,0.00,,,0.00,Wunderground v.1.15,2013-04-16 21:39:00,
2013-04-16 17:44:00,55.1,49.0,30.23,SW,219,5.0,13.0,80,0.00,,,0.00,Wunderground v.1.15,2013-04-16 21:44:00,
2013-04-16 17:49:00,54.7,49.3,30.22,SSW,210,6.0,13.0,82,0.00,,,0.00,Wunderground v.1.15,2013-04-16 21:49:00,
2013-04-16 17:54:00,54.6,49.2,30.22,SSW,204,6.0,13.0,82,0.00,,,0.00,Wunderground v.1.15,2013-04-16 21:54:00,
2013-04-16 17:59:00,54.3,49.2,30.22,SW,235,7.0,13.0,83,0.00,,,0.00,Wunderground v.1.15,2013-04-16 21:59:00,
2013-04-16 18:05:00,54.1,49.1,30.22,SW,218,8.0,13.0,83,0.00,,,0.00,Wunderground v.1.15,2013-04-16 22:05:00,
2013-04-16 18:10:00,54.0,49.3,30.21,SSW,205,6.0,6.0,84,0.00,,,0.00,Wunderground v.1.15,2013-04-16 22:10:00,
2013-04-16 18:15:00,53.9,49.2,30.20,West,276,6.0,13.0,84,0.00,,,0.00,Wunderground v.1.15,2013-04-16 22:15:00,
2013-04-16 18:21:00,53.8,49.1,30.20,SE,143,6.0,13.0,84,0.00,,,0.00,Wunderground v.1.15,2013-04-16 22:21:00,
2013-04-16 18:26:00,53.9,49.5,30.19,WSW,243,5.0,13.0,85,0.00,,,0.00,Wunderground v.1.15,2013-04-16 22:26:00,
2013-04-16 18:32:00,53.9,49.5,30.19,SW,236,5.0,13.0,85,0.00,,,0.00,Wunderground v.1.15,2013-04-16 22:32:00,
2013-04-16 18:38:00,53.8,49.4,30.18,SW,233,6.0,13.0,85,0.00,,,0.00,Wunderground v.1.15,2013-04-16 22:38:00,
2013-04-16 18:43:00,53.7,49.3,30.18,SW,221,6.0,13.0,85,0.00,,,0.00,Wunderground v.1.15,2013-04-16 22:43:00,
2013-04-16 18:48:00,53.6,49.5,30.18,WNW,303,7.0,14.0,86,0.00,,,0.00,Wunderground v.1.15,2013-04-16 22:48:00,
2013-04-16 18:54:00,53.4,49.3,30.17,SW,226,7.0,13.0,86,0.00,,,0.00,Wunderground v.1.15,2013-04-16 22:54:00,
2013-04-16 18:59:00,53.3,49.2,30.17,West,278,7.0,13.0,86,0.00,,,0.00,Wunderground v.1.15,2013-04-16 22:59:00,
2013-04-16 19:05:00,53.2,49.4,30.17,South,179,7.0,13.0,87,0.00,,,0.00,Wunderground v.1.15,2013-04-16 23:05:00,
2013-04-16 19:10:00,53.1,49.3,30.18,SSE,149,7.0,7.0,87,0.00,,,0.00,Wunderground v.1.15,2013-04-16 23:10:00,
2013-04-16 19:16:00,53.1,49.3,30.17,South,189,6.0,13.0,87,0.00,,,0.00,Wunderground v.1.15,2013-04-16 23:16:00,
2013-04-16 19:22:00,53.0,49.2,30.17,SW,221,6.0,13.0,87,0.00,,,0.00,Wunderground v.1.15,2013-04-16 23:22:00,
2013-04-16 19:28:00,53.0,49.2,30.17,SSW,205,5.0,13.0,87,0.00,,,0.00,Wunderground v.1.15,2013-04-16 23:28:00,
2013-04-16 19:33:00,53.0,49.2,30.17,SW,229,5.0,13.0,87,0.00,,,0.00,Wunderground v.1.15,2013-04-16 23:33:00,
2013-04-16 19:39:00,53.0,49.5,30.17,SSE,156,5.0,13.0,88,0.00,,,0.00,Wunderground v.1.15,2013-04-16 23:39:00,
2013-04-16 19:45:00,52.9,49.4,30.17,SW,225,6.0,13.0,88,0.00,,,0.00,Wunderground v.1.15,2013-04-16 23:45:00,
2013-04-16 19:50:00,53.0,49.5,30.17,WSW,253,6.0,6.0,88,0.00,,,0.00,Wunderground v.1.15,2013-04-16 23:50:00,
2013-04-16 19:56:00,53.0,49.5,30.17,SW,218,6.0,13.0,88,0.00,,,0.00,Wunderground v.1.15,2013-04-16 23:56:00,
2013-04-16 20:02:00,53.0,49.5,30.16,WSW,240,6.0,13.0,88,0.00,,,0.00,Wunderground v.1.15,2013-04-17 00:02:00,
2013-04-16 20:07:00,52.9,49.4,30.17,SW,235,6.0,13.0,88,0.00,,,0.00,Wunderground v.1.15,2013-04-17 00:07:00,
2013-04-16 20:12:00,52.9,49.4,30.17,WSW,252,5.0,13.0,88,0.00,,,0.00,Wunderground v.1.15,2013-04-17 00:12:00,
2013-04-16 20:18:00,52.9,49.4,30.17,SSE,149,4.0,13.0,88,0.00,,,0.00,Wunderground v.1.15,2013-04-17 00:18:00,
2013-04-16 20:23:00,52.9,49.4,30.16,WSW,246,5.0,13.0,88,0.00,,,0.00,Wunderground v.1.15,2013-04-17 00:23:00,
2013-04-16 20:28:00,53.0,49.5,30.17,South,176,3.0,13.0,88,0.00,,,0.00,Wunderground v.1.15,2013-04-17 00:28:00,
2013-04-16 20:33:00,53.0,49.5,30.17,WSW,256,3.0,13.0,88,0.00,,,0.00,Wunderground v.1.15,2013-04-17 00:33:00,
2013-04-16 20:38:00,53.2,49.7,30.17,WSW,239,4.0,13.0,88,0.00,,,0.00,Wunderground v.1.15,2013-04-17 00:38:00,
2013-04-16 20:44:00,53.4,49.9,30.18,SW,226,5.0,13.0,88,0.00,,,0.00,Wunderground v.1.15,2013-04-17 00:44:00,
2013-04-16 20:49:00,53.5,50.0,30.19,SW,233,5.0,13.0,88,0.00,,,0.00,Wunderground v.1.15,2013-04-17 00:49:00,
2013-04-16 20:55:00,53.6,49.8,30.19,SSW,212,4.0,13.0,87,0.00,,,0.00,Wunderground v.1.15,2013-04-17 00:55:00,
2013-04-16 21:00:00,53.7,49.9,30.19,WSW,246,5.0,5.0,87,0.00,,,0.00,Wunderground v.1.15,2013-04-17 01:00:00,
2013-04-16 21:05:00,53.7,49.9,30.19,SW,218,5.0,13.0,87,0.00,,,0.00,Wunderground v.1.15,2013-04-17 01:05:00,
2013-04-16 21:10:00,53.7,49.9,30.19,SW,215,4.0,4.0,87,0.00,,,0.00,Wunderground v.1.15,2013-04-17 01:10:00,
2013-04-16 21:16:00,53.6,49.8,30.19,SW,235,3.0,13.0,87,0.00,,,0.00,Wunderground v.1.15,2013-04-17 01:16:00,
2013-04-16 21:22:00,53.5,49.7,30.19,WSW,245,4.0,13.0,87,0.00,,,0.00,Wunderground v.1.15,2013-04-17 01:22:00,
2013-04-16 21:27:00,53.4,49.6,30.19,West,270,5.0,13.0,87,0.00,,,0.00,Wunderground v.1.15,2013-04-17 01:27:00,
2013-04-16 21:33:00,53.2,49.4,30.19,SSW,193,5.0,13.0,87,0.00,,,0.00,Wunderground v.1.15,2013-04-17 01:33:00,
2013-04-16 21:39:00,53.1,49.6,30.19,SSW,208,4.0,13.0,88,0.00,,,0.00,Wunderground v.1.15,2013-04-17 01:39:00,
2013-04-16 21:44:00,53.0,49.5,30.19,SW,224,4.0,13.0,88,0.00,,,0.00,Wunderground v.1.15,2013-04-17 01:44:00,
2013-04-16 21:49:00,53.0,49.5,30.19,SW,218,4.0,13.0,88,0.00,,,0.00,Wunderground v.1.15,2013-04-17 01:49:00,
2013-04-16 21:54:00,53.2,49.7,30.18,SW,218,5.0,13.0,88,0.00,,,0.00,Wunderground v.1.15,2013-04-17 01:54:00,
2013-04-16 22:00:00,53.2,49.7,30.18,SW,215,5.0,13.0,88,0.00,,,0.00,Wunderground v.1.15,2013-04-17 02:00:00,
2013-04-16 22:06:00,53.2,49.7,30.18,WSW,248,5.0,13.0,88,0.00,,,0.00,Wunderground v.1.15,2013-04-17 02:06:00,
2013-04-16 22:12:00,53.2,49.7,30.18,SSW,192,5.0,13.0,88,0.00,,,0.00,Wunderground v.1.15,2013-04-17 02:12:00,
2013-04-16 22:17:00,53.3,49.5,30.18,SSW,200,5.0,13.0,87,0.00,,,0.00,Wunderground v.1.15,2013-04-17 02:17:00,
2013-04-16 22:23:00,53.3,49.5,30.17,SW,229,5.0,13.0,87,0.00,,,0.00,Wunderground v.1.15,2013-04-17 02:23:00,
2013-04-16 22:29:00,53.3,49.5,30.17,SSW,193,4.0,13.0,87,0.00,,,0.00,Wunderground v.1.15,2013-04-17 02:29:00,
2013-04-16 22:34:00,53.3,49.5,30.17,SSW,210,4.0,13.0,87,0.00,,,0.00,Wunderground v.1.15,2013-04-17 02:34:00,
2013-04-16 22:40:00,53.4,49.6,30.16,SW,215,4.0,13.0,87,0.00,,,0.00,Wunderground v.1.15,2013-04-17 02:40:00,
2013-04-16 22:45:00,53.4,49.6,30.16,SW,229,4.0,13.0,87,0.00,,,0.00,Wunderground v.1.15,2013-04-17 02:45:00,
2013-04-16 22:51:00,53.4,49.6,30.16,West,262,4.0,13.0,87,0.00,,,0.00,Wunderground v.1.15,2013-04-17 02:51:00,
2013-04-16 22:57:00,53.3,49.5,30.16,SSW,211,4.0,13.0,87,0.00,,,0.00,Wunderground v.1.15,2013-04-17 02:57:00,
2013-04-16 23:02:00,53.2,49.7,30.15,SW,235,4.0,13.0,88,0.00,,,0.00,Wunderground v.1.15,2013-04-17 03:02:00,
2013-04-16 23:08:00,52.9,49.7,30.16,SW,224,4.0,13.0,89,0.00,,,0.00,Wunderground v.1.15,2013-04-17 03:08:00,
2013-04-16 23:13:00,52.8,49.6,30.14,SW,222,5.0,5.0,89,0.00,,,0.00,Wunderground v.1.15,2013-04-17 03:13:00,
2013-04-16 23:18:00,52.6,49.4,30.15,West,259,4.0,6.0,89,0.00,,,0.00,Wunderground v.1.15,2013-04-17 03:18:00,
2013-04-16 23:24:00,52.6,49.8,30.16,SW,228,4.0,4.0,90,0.00,,,0.00,Wunderground v.1.15,2013-04-17 03:24:00,
2013-04-16 23:29:00,52.6,49.8,30.16,SSE,155,3.0,5.0,90,0.00,,,0.00,Wunderground v.1.15,2013-04-17 03:29:00,
2013-04-16 23:35:00,52.6,49.8,30.16,SW,236,3.0,5.0,90,0.00,,,0.00,Wunderground v.1.15,2013-04-17 03:35:00,
2013-04-16 23:41:00,52.6,49.4,30.15,SSW,210,3.0,5.0,89,0.00,,,0.00,Wunderground v.1.15,2013-04-17 03:41:00,
2013-04-16 23:47:00,52.6,49.8,30.15,SW,226,3.0,5.0,90,0.00,,,0.00,Wunderground v.1.15,2013-04-17 03:47:00,
2013-04-16 23:52:00,52.6,49.8,30.15,SSW,195,2.0,3.0,90,0.00,,,0.00,Wunderground v.1.15,2013-04-17 03:52:00,
2013-04-16 23:57:00,52.6,49.4,30.15,SW,216,3.0,6.0,89,0.00,,,0.00,Wunderground v.1.15,2013-04-17 03:57:00,